Corvallis Municipal Airport
KCVO : now visible

Airfield :











YOU CAN JOIN US ON...

 
LOGIN :

Register | Disclaimer

   EN    FR    IT 

 









Legend :    VFR   Marginal VFR   IFR   Intensive IFR   Very Intensive IFR
Visi :
Ceiling :
>= 8 km
>= 3000ft
5 to 8 km
1000 to 3000 ft
1500m to 5 km
500 to 1000 ft
800 to 1500m
200 to 500 ft
< 800m
< 200 ft
Symbols :   Thunderstorms  Fog  Heavy snow  Heavy precipitations  Wind > 20 kt






- Airport Elevation : 250 ft


KCVO - Corvallis Municipal

CURRENT METAR :
  • 172156Z AUTO 06007KT 10SM SCT039 SCT048 10/01 A3041 RMK AO2 SLP300 T01000011

EXPIRED METARs :
  • 172056Z AUTO 09005KT 10SM FEW035 09/02 A3043 RMK AO2 SLP306 T00940022 58009
  • 171956Z AUTO 08007KT 10SM SCT019 09/03 A3044 RMK AO2 SLP312 T00890033

TAF N/A



MET'MAP, your aeronautical weather chart ! - Copyright ORBIFLY December 2007 - Disclaimer

ORBIFLY MET'MAP TEAM :

Programming & Development : Alexandra Zaïnal
Concept & original design : Baudouin d'Aumeries
Assistance for programming : Marc-Olivier Méhu
Technical & hardware support : Manuel Goepfert

Contact : metmap@orbifly.com




SOURCES & CREDITS :

   NOAA       Earth
Advisory